createdAt,value
2022-09-01T00:00:40.744Z,998.16
2022-09-01T00:01:40.694Z,998.10
2022-09-01T00:02:40.826Z,998.10
2022-09-01T00:03:40.682Z,998.12
2022-09-01T00:04:40.712Z,998.12
2022-09-01T00:05:40.667Z,998.08
2022-09-01T00:06:40.681Z,998.09
2022-09-01T00:07:40.644Z,998.12
2022-09-01T00:08:40.642Z,998.12
2022-09-01T00:09:40.630Z,998.11
2022-09-01T00:10:40.623Z,998.09
2022-09-01T00:11:40.637Z,998.15
2022-09-01T00:12:40.611Z,998.12
2022-09-01T00:13:40.601Z,998.12
2022-09-01T00:14:41.611Z,998.12
2022-09-01T00:15:41.670Z,998.09
2022-09-01T00:16:40.597Z,998.12
2022-09-01T00:17:40.564Z,998.16
2022-09-01T00:18:40.559Z,998.18
2022-09-01T00:19:40.553Z,998.11
2022-09-01T00:20:40.543Z,998.14
2022-09-01T00:21:40.559Z,998.12
2022-09-01T00:22:40.527Z,998.15
2022-09-01T00:23:40.518Z,998.10
2022-09-01T00:24:40.509Z,998.14
2022-09-01T00:25:40.503Z,998.17
2022-09-01T00:26:40.522Z,998.12
2022-09-01T00:27:40.491Z,998.16
2022-09-01T00:28:40.478Z,998.15
2022-09-01T00:29:43.978Z,998.15
2022-09-01T00:30:40.492Z,998.19
2022-09-01T00:31:40.480Z,998.18
2022-09-01T00:32:40.447Z,998.16
2022-09-01T00:33:40.445Z,998.16
2022-09-01T00:34:40.430Z,998.20
2022-09-01T00:35:40.425Z,998.19
2022-09-01T00:36:40.438Z,998.29
2022-09-01T00:37:40.412Z,998.26
2022-09-01T00:38:40.401Z,998.32
2022-09-01T00:39:40.395Z,998.22
2022-09-01T00:40:40.422Z,998.20
2022-09-01T00:41:40.406Z,998.15
2022-09-01T00:42:40.370Z,998.26
2022-09-01T00:43:40.359Z,998.18
2022-09-01T00:44:40.354Z,998.20
2022-09-01T00:45:40.346Z,998.20
2022-09-01T00:46:41.391Z,998.24
2022-09-01T00:47:41.328Z,998.17
2022-09-01T00:48:40.322Z,998.18
2022-09-01T00:49:40.316Z,998.24
2022-09-01T00:50:40.307Z,998.19
2022-09-01T00:51:40.325Z,998.18
2022-09-01T00:52:40.289Z,998.22
2022-09-01T00:53:40.283Z,998.17
2022-09-01T00:54:40.273Z,998.21
2022-09-01T00:55:41.274Z,998.14
2022-09-01T00:56:40.285Z,998.10
2022-09-01T00:57:41.251Z,998.14
2022-09-01T00:58:40.241Z,998.19
2022-09-01T00:59:40.235Z,998.13
2022-09-01T01:00:40.228Z,998.12
2022-09-01T01:01:40.311Z,998.14
2022-09-01T01:02:40.239Z,998.10
2022-09-01T01:03:40.203Z,998.18
2022-09-01T01:04:41.196Z,998.10
2022-09-01T01:05:40.185Z,998.06
2022-09-01T01:06:40.205Z,998.09
2022-09-01T01:07:40.170Z,998.02
2022-09-01T01:08:40.161Z,998.16
2022-09-01T01:09:40.152Z,998.09
2022-09-01T01:10:40.153Z,998.05
2022-09-01T01:11:40.160Z,998.04
2022-09-01T01:12:40.127Z,998.03
2022-09-01T01:13:40.121Z,998.01
2022-09-01T01:14:40.112Z,998.04
2022-09-01T01:15:40.102Z,998.00
2022-09-01T01:16:40.150Z,997.97
2022-09-01T01:17:40.086Z,997.92
2022-09-01T01:18:40.079Z,997.92
2022-09-01T01:19:40.071Z,997.93
2022-09-01T01:20:40.060Z,998.00
2022-09-01T01:21:40.081Z,998.07
2022-09-01T01:22:40.049Z,997.98
2022-09-01T01:23:40.038Z,998.02
2022-09-01T01:24:40.030Z,998.02
2022-09-01T01:25:40.022Z,998.00
2022-09-01T01:26:40.039Z,997.98
2022-09-01T01:27:43.117Z,998.00
2022-09-01T01:28:39.999Z,997.99
2022-09-01T01:29:39.991Z,997.95
2022-09-01T01:30:40.051Z,998.01
2022-09-01T01:31:39.999Z,997.96
2022-09-01T01:32:39.970Z,998.02
2022-09-01T01:33:39.958Z,998.05
2022-09-01T01:34:39.948Z,998.03
2022-09-01T01:35:39.943Z,998.07
2022-09-01T01:36:39.966Z,998.00
2022-09-01T01:37:39.925Z,997.98
2022-09-01T01:38:39.917Z,998.02
2022-09-01T01:39:39.915Z,998.01
2022-09-01T01:40:39.933Z,997.98
2022-09-01T01:41:39.926Z,998.00
2022-09-01T01:42:39.893Z,997.94
2022-09-01T01:43:39.888Z,998.02
2022-09-01T01:44:39.875Z,997.99
2022-09-01T01:45:39.915Z,997.98
2022-09-01T01:46:39.887Z,997.96
2022-09-01T01:47:39.852Z,998.01
2022-09-01T01:48:39.846Z,998.00
2022-09-01T01:49:39.837Z,997.97
2022-09-01T01:50:39.826Z,997.92
2022-09-01T01:51:39.846Z,997.90
2022-09-01T01:52:39.816Z,997.85
2022-09-01T01:53:40.805Z,997.84
2022-09-01T01:54:39.797Z,997.92
2022-09-01T01:55:39.791Z,997.87
2022-09-01T01:56:39.827Z,997.85
2022-09-01T01:57:39.777Z,997.94
2022-09-01T01:58:39.769Z,998.00
2022-09-01T01:59:39.766Z,997.95
2022-09-01T02:00:39.753Z,997.92
2022-09-01T02:01:39.812Z,997.93
2022-09-01T02:02:39.767Z,997.96
2022-09-01T02:03:39.730Z,998.02
2022-09-01T02:04:39.719Z,998.00
2022-09-01T02:05:39.712Z,997.99
2022-09-01T02:06:39.735Z,997.97
2022-09-01T02:07:39.694Z,998.04
2022-09-01T02:08:39.686Z,997.97
2022-09-01T02:09:39.679Z,998.05
2022-09-01T02:10:39.672Z,998.07
2022-09-01T02:11:39.666Z,998.03
2022-09-01T02:12:39.672Z,998.02
2022-09-01T02:13:40.649Z,998.01
2022-09-01T02:14:39.643Z,998.06
2022-09-01T02:15:39.641Z,997.99
2022-09-01T02:16:39.657Z,997.98
2022-09-01T02:17:39.644Z,998.00
2022-09-01T02:18:39.613Z,998.00
2022-09-01T02:19:39.610Z,997.97
2022-09-01T02:20:39.599Z,998.03
2022-09-01T02:21:39.596Z,997.96
2022-09-01T02:22:39.612Z,997.95
2022-09-01T02:23:39.581Z,997.96
2022-09-01T02:24:39.576Z,997.88
2022-09-01T02:25:53.874Z,997.90
2022-09-01T02:26:41.557Z,997.87
2022-09-01T02:27:39.585Z,997.83
2022-09-01T02:28:39.543Z,997.80
2022-09-01T02:29:43.388Z,997.87
2022-09-01T02:30:39.569Z,997.83
2022-09-01T02:31:39.520Z,997.85
2022-09-01T02:32:39.535Z,997.86
2022-09-01T02:33:39.501Z,997.80
2022-09-01T02:34:39.493Z,997.82
2022-09-01T02:35:39.492Z,997.84
2022-09-01T02:36:39.478Z,997.77
2022-09-01T02:37:39.499Z,997.80
2022-09-01T02:38:39.463Z,997.79
2022-09-01T02:39:39.455Z,997.80
2022-09-01T02:40:39.545Z,997.78
2022-09-01T02:41:39.441Z,997.77
2022-09-01T02:42:39.457Z,997.82
2022-09-01T02:43:39.426Z,997.75
2022-09-01T02:44:41.400Z,997.79
2022-09-01T02:45:40.431Z,997.82
2022-09-01T02:46:39.404Z,997.78
2022-09-01T02:47:39.425Z,997.73
2022-09-01T02:48:39.389Z,997.74
2022-09-01T02:49:39.379Z,997.75
2022-09-01T02:50:39.372Z,997.75
2022-09-01T02:51:39.365Z,997.77
2022-09-01T02:52:39.387Z,997.78
2022-09-01T02:53:39.426Z,997.79
2022-09-01T02:54:39.338Z,997.77
2022-09-01T02:55:39.332Z,997.72
2022-09-01T02:56:39.328Z,997.72
2022-09-01T02:57:39.344Z,997.70
2022-09-01T02:58:39.310Z,997.73
2022-09-01T02:59:43.583Z,997.75
2022-09-01T03:00:40.288Z,997.80
2022-09-01T03:01:39.326Z,997.75
2022-09-01T03:02:39.276Z,997.79
2022-09-01T03:03:39.292Z,997.74
2022-09-01T03:04:39.314Z,997.79
2022-09-01T03:05:39.251Z,997.79
2022-09-01T03:06:39.249Z,997.78
2022-09-01T03:07:39.234Z,997.86
2022-09-01T03:08:39.254Z,997.80
2022-09-01T03:09:39.224Z,997.83
2022-09-01T03:10:39.211Z,997.74
2022-09-01T03:11:39.208Z,997.75
2022-09-01T03:12:39.202Z,997.80
2022-09-01T03:13:39.218Z,997.75
2022-09-01T03:14:39.183Z,997.82
2022-09-01T03:15:39.176Z,997.81
2022-09-01T03:16:39.318Z,997.84
2022-09-01T03:17:39.162Z,997.78
2022-09-01T03:18:39.701Z,997.77
2022-09-01T03:19:39.147Z,997.84
2022-09-01T03:20:39.138Z,997.84
2022-09-01T03:21:39.128Z,997.73
2022-09-01T03:22:39.124Z,997.72
2022-09-01T03:23:39.139Z,997.77
2022-09-01T03:24:39.110Z,997.80
2022-09-01T03:25:39.096Z,997.76
2022-09-01T03:26:39.179Z,997.84
2022-09-01T03:27:39.083Z,997.87
2022-09-01T03:28:39.095Z,997.85
2022-09-01T03:29:39.070Z,997.84
2022-09-01T03:30:39.058Z,997.83
2022-09-01T03:31:39.066Z,997.79
2022-09-01T03:32:39.052Z,997.86
2022-09-01T03:33:39.059Z,997.75
2022-09-01T03:34:39.027Z,997.78
2022-09-01T03:35:39.018Z,997.80
2022-09-01T03:36:39.012Z,997.84
2022-09-01T03:37:39.000Z,997.82
2022-09-01T03:38:39.017Z,997.79
2022-09-01T03:39:38.985Z,997.84
2022-09-01T03:40:39.074Z,997.80
2022-09-01T03:41:38.964Z,997.85
2022-09-01T03:42:38.963Z,997.80
2022-09-01T03:43:38.983Z,997.86
2022-09-01T03:44:39.942Z,997.83
2022-09-01T03:45:39.001Z,997.88
2022-09-01T03:46:38.927Z,997.88
2022-09-01T03:47:38.936Z,997.86
2022-09-01T03:48:38.942Z,997.86
2022-09-01T03:49:38.902Z,997.78
2022-09-01T03:50:38.897Z,997.77
2022-09-01T03:51:38.973Z,997.83
2022-09-01T03:52:38.895Z,997.81
2022-09-01T03:53:38.899Z,997.74
2022-09-01T03:54:38.866Z,997.82
2022-09-01T03:55:38.865Z,997.81
2022-09-01T03:56:38.848Z,997.83
2022-09-01T03:57:38.841Z,997.83
2022-09-01T03:58:38.867Z,997.82
2022-09-01T03:59:38.828Z,997.77
2022-09-01T04:00:38.881Z,997.75
2022-09-01T04:01:38.848Z,997.72
2022-09-01T04:02:38.854Z,997.78
2022-09-01T04:03:38.827Z,997.78
2022-09-01T04:04:39.793Z,997.82
2022-09-01T04:05:38.786Z,997.80
2022-09-01T04:06:38.780Z,997.80
2022-09-01T04:07:38.772Z,997.78
2022-09-01T04:08:38.791Z,997.82
2022-09-01T04:09:38.760Z,997.88
2022-09-01T04:10:38.752Z,997.75
2022-09-01T04:11:42.465Z,997.92
2022-09-01T04:12:39.737Z,997.85
2022-09-01T04:13:38.751Z,997.91
2022-09-01T04:14:38.721Z,997.87
2022-09-01T04:15:38.717Z,997.87
2022-09-01T04:16:38.783Z,997.83
2022-09-01T04:17:38.696Z,997.84
2022-09-01T04:18:38.714Z,997.85
2022-09-01T04:19:38.684Z,997.83
2022-09-01T04:20:38.674Z,997.89
2022-09-01T04:21:38.667Z,997.85
2022-09-01T04:22:38.659Z,997.91
2022-09-01T04:23:38.677Z,997.80
2022-09-01T04:24:41.091Z,997.83
2022-09-01T04:25:39.636Z,997.79
2022-09-01T04:26:38.627Z,997.77
2022-09-01T04:27:38.622Z,997.81
2022-09-01T04:28:38.644Z,997.84
2022-09-01T04:29:38.614Z,997.84
2022-09-01T04:30:38.605Z,997.83
2022-09-01T04:31:38.686Z,997.83
2022-09-01T04:32:38.581Z,997.87
2022-09-01T04:33:38.602Z,997.86
2022-09-01T04:34:38.567Z,997.82
2022-09-01T04:35:38.557Z,997.89
2022-09-01T04:36:38.550Z,997.87
2022-09-01T04:37:38.539Z,997.90
2022-09-01T04:38:38.558Z,997.89
2022-09-01T04:39:38.526Z,997.85
2022-09-01T04:40:38.618Z,997.89
2022-09-01T04:41:38.507Z,997.94
2022-09-01T04:42:38.492Z,997.93
2022-09-01T04:43:39.521Z,997.90
2022-09-01T04:44:38.485Z,997.93
2022-09-01T04:45:38.522Z,997.89
2022-09-01T04:46:38.474Z,997.97
2022-09-01T04:47:38.469Z,997.96
2022-09-01T04:48:38.483Z,997.95
2022-09-01T04:49:38.448Z,997.96
2022-09-01T04:50:38.445Z,997.96
2022-09-01T04:51:38.434Z,997.98
2022-09-01T04:52:38.422Z,997.96
2022-09-01T04:53:38.441Z,997.98
2022-09-01T04:54:38.408Z,997.88
2022-09-01T04:55:38.399Z,997.94
2022-09-01T04:56:38.389Z,997.93
2022-09-01T04:57:38.382Z,997.98
2022-09-01T04:58:38.399Z,997.96
2022-09-01T04:59:38.363Z,998.01
2022-09-01T05:00:38.410Z,997.98
2022-09-01T05:01:38.349Z,998.02
2022-09-01T05:02:38.401Z,997.99
2022-09-01T05:03:38.361Z,998.01
2022-09-01T05:04:38.336Z,998.05
2022-09-01T05:05:38.321Z,998.02
2022-09-01T05:06:38.307Z,998.05
2022-09-01T05:07:38.302Z,997.99
2022-09-01T05:08:38.336Z,997.94
2022-09-01T05:09:38.307Z,998.00
2022-09-01T05:10:38.278Z,998.04
2022-09-01T05:11:38.271Z,997.99
2022-09-01T05:12:38.263Z,997.99
2022-09-01T05:13:38.281Z,998.05
2022-09-01T05:14:38.244Z,998.00
2022-09-01T05:15:38.243Z,998.03
2022-09-01T05:16:38.271Z,998.07
2022-09-01T05:17:38.218Z,998.05
2022-09-01T05:18:38.243Z,998.08
2022-09-01T05:19:38.207Z,998.16
2022-09-01T05:20:38.198Z,998.06
2022-09-01T05:21:38.189Z,998.11
2022-09-01T05:22:38.178Z,998.05
2022-09-01T05:23:38.172Z,998.07
2022-09-01T05:24:41.955Z,998.06
2022-09-01T05:25:39.164Z,998.02
2022-09-01T05:26:38.152Z,998.00
2022-09-01T05:27:38.151Z,998.06
2022-09-01T05:28:38.131Z,997.99
2022-09-01T05:29:38.147Z,998.08
2022-09-01T05:30:38.115Z,998.00
2022-09-01T05:31:38.229Z,997.99
2022-09-01T05:32:38.093Z,998.07
2022-09-01T05:33:38.092Z,997.97
2022-09-01T05:34:38.110Z,998.11
2022-09-01T05:35:38.078Z,998.03
2022-09-01T05:36:38.058Z,998.02
2022-09-01T05:37:39.058Z,998.02
2022-09-01T05:38:38.052Z,998.03
2022-09-01T05:39:38.118Z,997.99
2022-09-01T05:40:38.116Z,998.02
2022-09-01T05:41:38.031Z,998.00
2022-09-01T05:42:38.021Z,998.07
2022-09-01T05:43:38.011Z,998.08
2022-09-01T05:44:38.030Z,998.01
2022-09-01T05:45:56.523Z,998.12
2022-09-01T05:46:40.102Z,998.13
2022-09-01T05:47:37.985Z,998.25
2022-09-01T05:48:37.976Z,998.24
2022-09-01T05:49:37.991Z,998.19
2022-09-01T05:50:37.952Z,998.22
2022-09-01T05:51:46.423Z,998.23
2022-09-01T05:52:39.940Z,998.13
2022-09-01T05:53:37.934Z,998.22
2022-09-01T05:54:37.961Z,998.17
2022-09-01T05:55:37.917Z,998.25
2022-09-01T05:56:41.409Z,998.23
2022-09-01T05:57:39.905Z,998.21
2022-09-01T05:59:39.917Z,998.29
2022-09-01T06:00:37.879Z,998.26
2022-09-01T06:01:37.924Z,998.29
2022-09-01T06:02:37.973Z,998.28
2022-09-01T06:03:38.464Z,998.30
2022-09-01T06:04:37.879Z,998.28
2022-09-01T06:05:37.845Z,998.37
2022-09-01T06:06:54.994Z,998.41
2022-09-01T06:07:39.868Z,998.35
2022-09-01T06:08:39.148Z,998.38
2022-09-01T06:09:37.840Z,998.43
2022-09-01T06:10:37.814Z,998.38
2022-09-01T06:11:37.801Z,998.40
2022-09-01T06:12:37.791Z,998.46
2022-09-01T06:13:37.790Z,998.46
2022-09-01T06:14:37.808Z,998.42
2022-09-01T06:15:37.775Z,998.52
2022-09-01T06:16:37.841Z,998.46
2022-09-01T06:17:37.754Z,998.38
2022-09-01T06:18:37.745Z,998.26
2022-09-01T06:19:37.768Z,998.38
2022-09-01T06:20:37.730Z,998.42
2022-09-01T06:21:37.722Z,998.24
2022-09-01T06:22:37.721Z,998.32
2022-09-01T06:23:37.710Z,998.40
2022-09-01T06:24:37.728Z,998.43
2022-09-01T06:25:37.697Z,998.40
2022-09-01T06:26:37.688Z,998.46
2022-09-01T06:27:37.679Z,998.42
2022-09-01T06:28:37.674Z,998.42
2022-09-01T06:29:37.692Z,998.49
2022-09-01T06:30:38.661Z,998.50
2022-09-01T06:31:37.697Z,998.50
2022-09-01T06:32:37.651Z,998.46
2022-09-01T06:33:37.642Z,998.50
2022-09-01T06:34:37.661Z,998.45
2022-09-01T06:35:37.620Z,998.48
2022-09-01T06:36:37.617Z,998.48
2022-09-01T06:37:37.614Z,998.48
2022-09-01T06:38:37.601Z,998.49
2022-09-01T06:39:37.619Z,998.52
2022-09-01T06:40:37.709Z,998.54
2022-09-01T06:41:37.581Z,998.50
2022-09-01T06:42:37.604Z,998.56
2022-09-01T06:43:37.569Z,998.44
2022-09-01T06:44:41.039Z,998.48
2022-09-01T06:45:38.560Z,998.51
2022-09-01T06:46:37.598Z,998.50
2022-09-01T06:47:37.543Z,998.51
2022-09-01T06:48:37.537Z,998.55
2022-09-01T06:49:37.559Z,998.59
2022-09-01T06:51:39.522Z,998.55
2022-09-01T06:53:39.506Z,998.59
2022-09-01T06:54:37.498Z,998.55
2022-09-01T06:55:37.519Z,998.57
2022-09-01T06:56:44.664Z,998.51
2022-09-01T06:58:08.330Z,998.54
2022-09-01T06:58:39.475Z,998.58
2022-09-01T06:59:37.464Z,998.57
2022-09-01T07:00:37.498Z,998.55
2022-09-01T07:01:39.233Z,998.54
2022-09-01T07:02:37.494Z,998.55
2022-09-01T07:03:37.438Z,998.57
2022-09-01T07:04:37.427Z,998.58
2022-09-01T07:08:05.319Z,998.55
2022-09-01T07:09:19.074Z,998.53
2022-09-01T07:11:19.641Z,998.57
2022-09-01T07:12:39.371Z,998.56
2022-09-01T07:13:38.806Z,998.51
2022-09-01T07:16:31.931Z,998.62
2022-09-01T07:16:41.925Z,998.56
2022-09-01T07:17:39.335Z,998.67
2022-09-01T07:18:37.328Z,998.56
2022-09-01T07:19:52.524Z,998.68
2022-09-01T07:21:02.877Z,998.62
2022-09-01T07:21:40.759Z,998.59
2022-09-01T07:23:03.357Z,998.68
2022-09-01T07:24:07.681Z,998.55
2022-09-01T07:24:39.282Z,998.56
2022-09-01T07:26:00.446Z,998.64
2022-09-01T07:26:46.736Z,998.64
2022-09-01T07:27:40.624Z,998.65
2022-09-01T07:28:37.406Z,998.66
2022-09-01T07:29:37.245Z,998.61
2022-09-01T07:30:37.267Z,998.67
2022-09-01T07:32:44.170Z,998.65
2022-09-01T07:32:44.263Z,998.66
2022-09-01T07:33:42.612Z,998.69
2022-09-01T07:34:38.935Z,998.59
2022-09-01T07:35:38.232Z,998.58
2022-09-01T07:37:16.120Z,998.62
2022-09-01T07:39:55.412Z,998.55
2022-09-01T07:42:31.192Z,998.52
2022-09-01T07:43:39.145Z,998.65
2022-09-01T07:44:37.141Z,998.59
2022-09-01T07:45:37.158Z,998.63
2022-09-01T07:46:37.720Z,998.57
2022-09-01T07:47:53.772Z,998.46
2022-09-01T07:50:11.968Z,998.55
2022-09-01T07:51:07.469Z,998.49
2022-09-01T07:51:39.248Z,998.49
2022-09-01T07:52:37.082Z,998.56
2022-09-01T07:53:37.076Z,998.55
2022-09-01T07:54:37.066Z,998.53
2022-09-01T07:55:37.084Z,998.62
2022-09-01T07:56:40.206Z,998.66
2022-09-01T07:57:38.051Z,998.58
2022-09-01T07:58:37.037Z,998.53
2022-09-01T07:59:37.035Z,998.47
2022-09-01T08:00:37.048Z,998.45
2022-09-01T08:01:37.107Z,998.46
2022-09-01T08:02:37.066Z,998.35
2022-09-01T08:03:37.005Z,998.42
2022-09-01T08:04:36.992Z,998.65
2022-09-01T08:05:37.014Z,998.49
2022-09-01T08:06:38.634Z,998.50
2022-09-01T08:07:51.774Z,998.58
2022-09-01T08:08:38.964Z,998.63
2022-09-01T08:09:38.205Z,998.44
2022-09-01T08:10:37.973Z,998.58
2022-09-01T08:12:01.567Z,998.53
2022-09-01T08:12:38.940Z,998.52
2022-09-01T08:13:41.402Z,998.46
2022-09-01T08:14:38.926Z,998.43
2022-09-01T08:16:05.694Z,998.50
2022-09-01T08:16:40.293Z,998.42
2022-09-01T08:17:54.228Z,998.54
2022-09-01T08:18:54.075Z,998.46
2022-09-01T08:19:38.885Z,998.35
2022-09-01T08:20:36.903Z,998.49
2022-09-01T08:21:36.869Z,998.48
2022-09-01T08:22:36.856Z,998.47
2022-09-01T08:23:36.857Z,998.46
2022-09-01T08:24:36.846Z,998.43
2022-09-01T08:25:36.863Z,998.44
2022-09-01T08:26:36.839Z,998.45
2022-09-01T08:27:36.820Z,998.49
2022-09-01T08:28:36.818Z,998.54
2022-09-01T08:29:36.816Z,998.42
2022-09-01T08:30:36.836Z,998.45
2022-09-01T08:31:36.887Z,998.47
2022-09-01T08:32:36.783Z,998.49
2022-09-01T08:33:36.778Z,998.44
2022-09-01T08:34:36.768Z,998.39
2022-09-01T08:35:36.786Z,998.53
2022-09-01T08:36:37.754Z,998.42
2022-09-01T08:37:36.746Z,998.48
2022-09-01T08:38:36.742Z,998.52
2022-09-01T08:39:36.734Z,998.49
2022-09-01T08:40:36.795Z,998.46
2022-09-01T08:41:36.723Z,998.41
2022-09-01T08:42:36.711Z,998.50
2022-09-01T08:43:36.703Z,998.51
2022-09-01T08:44:36.693Z,998.46
2022-09-01T08:45:36.685Z,998.47
2022-09-01T08:46:36.773Z,998.46
2022-09-01T08:47:56.012Z,998.54
2022-09-01T08:49:45.500Z,998.41
2022-09-01T08:50:38.669Z,998.49
2022-09-01T08:51:36.640Z,998.52
2022-09-01T08:52:36.627Z,998.41
2022-09-01T08:53:36.623Z,998.40
2022-09-01T08:54:36.619Z,998.39
2022-09-01T08:55:36.631Z,998.44
2022-09-01T08:56:36.593Z,998.42
2022-09-01T08:57:36.592Z,998.35
2022-09-01T08:58:36.588Z,998.43
2022-09-01T08:59:36.580Z,998.29
2022-09-01T09:00:36.594Z,998.36
2022-09-01T09:01:36.586Z,998.34
2022-09-01T09:02:36.658Z,998.43
2022-09-01T09:03:40.932Z,998.42
2022-09-01T09:04:37.542Z,998.40
2022-09-01T09:05:36.553Z,998.40
2022-09-01T09:06:36.520Z,998.45
2022-09-01T09:07:36.503Z,998.33
2022-09-01T09:08:37.503Z,998.40
2022-09-01T09:09:36.498Z,998.41
2022-09-01T09:10:36.521Z,998.41
2022-09-01T09:11:36.484Z,998.40
2022-09-01T09:12:49.086Z,998.43
2022-09-01T09:13:37.460Z,998.44
2022-09-01T09:14:36.454Z,998.43
2022-09-01T09:15:36.522Z,998.33
2022-09-01T09:16:36.443Z,998.34
2022-09-01T09:17:36.434Z,998.37
2022-09-01T09:18:39.938Z,998.33
2022-09-01T09:19:36.422Z,998.32
2022-09-01T09:20:36.439Z,998.42
2022-09-01T09:21:36.401Z,998.34
2022-09-01T09:22:36.396Z,998.41
2022-09-01T09:23:36.396Z,998.40
2022-09-01T09:24:37.072Z,998.33
2022-09-01T09:25:36.398Z,998.29
2022-09-01T09:26:43.499Z,998.28
2022-09-01T09:27:38.366Z,998.24
2022-09-01T09:28:36.353Z,998.27
2022-09-01T09:29:36.342Z,998.32
2022-09-01T09:30:36.428Z,998.36
2022-09-01T09:31:37.528Z,998.25
2022-09-01T09:33:06.516Z,998.25
2022-09-01T09:33:51.128Z,998.23
2022-09-01T09:34:38.302Z,998.18
2022-09-01T09:35:36.331Z,998.24
2022-09-01T09:36:36.317Z,998.15
2022-09-01T09:37:36.295Z,998.22
2022-09-01T09:38:36.272Z,998.27
2022-09-01T09:39:36.263Z,998.20
2022-09-01T09:40:53.300Z,998.19
2022-09-01T09:41:38.306Z,998.12
2022-09-01T09:42:36.773Z,998.09
2022-09-01T09:43:37.239Z,998.06
2022-09-01T09:44:36.223Z,998.15
2022-09-01T09:45:36.215Z,998.10
2022-09-01T09:46:36.325Z,998.06
2022-09-01T09:47:43.674Z,998.16
2022-09-01T09:48:38.189Z,998.12
2022-09-01T09:49:42.226Z,998.04
2022-09-01T09:50:38.175Z,997.99
2022-09-01T09:51:36.199Z,997.94
2022-09-01T09:52:36.166Z,997.89
2022-09-01T09:53:36.156Z,997.90
2022-09-01T09:54:36.147Z,997.85
2022-09-01T09:55:36.144Z,997.86
2022-09-01T09:56:36.184Z,997.95
2022-09-01T09:57:37.126Z,997.98
2022-09-01T09:58:36.120Z,997.97
2022-09-01T09:59:57.181Z,997.88
2022-09-01T10:00:38.122Z,997.92
2022-09-01T10:01:36.161Z,997.88
2022-09-01T10:02:36.101Z,997.99
2022-09-01T10:03:36.140Z,997.98
2022-09-01T10:04:36.079Z,997.98
2022-09-01T10:05:36.070Z,997.93
2022-09-01T10:06:36.088Z,997.93
2022-09-01T10:07:36.056Z,997.84
2022-09-01T10:08:36.045Z,997.95
2022-09-01T10:09:36.043Z,997.93
2022-09-01T10:10:36.033Z,997.87
2022-09-01T10:11:36.123Z,997.92
2022-09-01T10:12:37.015Z,998.03
2022-09-01T10:13:36.010Z,997.92
2022-09-01T10:14:51.967Z,997.77
2022-09-01T10:15:38.000Z,997.83
2022-09-01T10:16:36.066Z,997.80
2022-09-01T10:17:36.350Z,997.72
2022-09-01T10:18:37.128Z,997.73
2022-09-01T10:19:36.109Z,997.78
2022-09-01T10:20:35.955Z,997.83
2022-09-01T10:21:35.973Z,997.76
2022-09-01T10:22:35.944Z,997.76
2022-09-01T10:23:35.934Z,997.74
2022-09-01T10:24:38.923Z,997.91
2022-09-01T10:25:35.918Z,997.77
2022-09-01T10:26:35.936Z,997.68
2022-09-01T10:27:35.902Z,997.72
2022-09-01T10:28:35.891Z,997.66
2022-09-01T10:29:47.513Z,997.65
2022-09-01T10:30:36.924Z,997.74
2022-09-01T10:31:35.892Z,997.70
2022-09-01T10:32:38.672Z,997.71
2022-09-01T10:33:37.843Z,997.67
2022-09-01T10:34:36.847Z,997.75
2022-09-01T10:35:39.734Z,997.70
2022-09-01T10:36:35.871Z,997.58
2022-09-01T10:37:35.825Z,997.72
2022-09-01T10:38:35.813Z,997.58
2022-09-01T10:39:42.891Z,997.52
2022-09-01T10:40:43.517Z,997.62
2022-09-01T10:41:36.831Z,997.56
2022-09-01T10:42:35.779Z,997.59
2022-09-01T10:43:37.995Z,997.55
2022-09-01T10:44:36.769Z,997.71
2022-09-01T10:45:35.848Z,997.68
2022-09-01T10:46:41.915Z,997.71
2022-09-01T10:47:37.874Z,997.67
2022-09-01T10:48:46.319Z,997.66
2022-09-01T10:49:37.729Z,997.53
2022-09-01T10:50:35.932Z,997.62
2022-09-01T10:51:38.850Z,997.53
2022-09-01T10:52:37.737Z,997.52
2022-09-01T10:53:36.701Z,997.56
2022-09-01T10:54:38.503Z,997.47
2022-09-01T10:55:36.678Z,997.50
2022-09-01T10:56:36.838Z,997.65
2022-09-01T10:57:41.893Z,997.65
2022-09-01T10:59:43.501Z,997.60
2022-09-01T11:00:37.722Z,997.55
2022-09-01T11:01:47.846Z,997.54
2022-09-01T11:02:46.370Z,997.54
2022-09-01T11:03:42.112Z,997.53
2022-09-01T11:04:36.688Z,997.61
2022-09-01T11:05:35.596Z,997.56
2022-09-01T11:06:35.613Z,997.55
2022-09-01T11:08:00.446Z,997.56
2022-09-01T11:08:37.573Z,997.58
2022-09-01T11:09:35.564Z,997.70
2022-09-01T11:10:35.849Z,997.58
2022-09-01T11:11:35.580Z,997.61
2022-09-01T11:12:35.533Z,997.49
2022-09-01T11:13:35.531Z,997.54
2022-09-01T11:14:35.524Z,997.59
2022-09-01T11:15:35.553Z,997.46
2022-09-01T11:16:51.893Z,997.53
2022-09-01T11:17:37.572Z,997.45
2022-09-01T11:18:35.489Z,997.49
2022-09-01T11:19:36.487Z,997.45
2022-09-01T11:20:35.477Z,997.44
2022-09-01T11:21:35.503Z,997.57
2022-09-01T11:22:36.234Z,997.43
2022-09-01T11:23:35.450Z,997.51
2022-09-01T11:24:36.054Z,997.48
2022-09-01T11:25:39.093Z,997.40
2022-09-01T11:26:36.460Z,997.52
2022-09-01T11:27:35.419Z,997.54
2022-09-01T11:28:35.424Z,997.41
2022-09-01T11:29:35.407Z,997.46
2022-09-01T11:30:35.392Z,997.30
2022-09-01T11:31:35.497Z,997.44
2022-09-01T11:32:35.407Z,997.42
2022-09-01T11:33:35.373Z,997.47
2022-09-01T11:34:35.401Z,997.41
2022-09-01T11:35:35.358Z,997.40
2022-09-01T11:36:35.390Z,997.42
2022-09-01T11:37:35.399Z,997.40
2022-09-01T11:38:35.339Z,997.43
2022-09-01T11:39:35.327Z,997.51
2022-09-01T11:40:35.358Z,997.35
2022-09-01T11:41:35.315Z,997.50
2022-09-01T11:42:35.334Z,997.46
2022-09-01T11:43:35.296Z,997.42
2022-09-01T11:44:35.290Z,997.43
2022-09-01T11:45:35.321Z,997.46
2022-09-01T11:46:35.269Z,997.49
2022-09-01T11:47:35.301Z,997.48
2022-09-01T11:48:35.255Z,997.65
2022-09-01T11:49:35.250Z,997.46
2022-09-01T11:50:35.250Z,997.30
2022-09-01T11:51:35.235Z,997.28
2022-09-01T11:52:35.254Z,997.19
2022-09-01T11:53:35.216Z,997.24
2022-09-01T11:54:35.209Z,997.34
2022-09-01T11:55:35.205Z,997.32
2022-09-01T11:56:35.201Z,997.32
2022-09-01T11:57:35.216Z,997.40
2022-09-01T11:58:35.182Z,997.35
2022-09-01T11:59:35.178Z,997.30
2022-09-01T12:00:35.165Z,997.31
2022-09-01T12:01:35.159Z,997.34
2022-09-01T12:02:36.649Z,997.35
2022-09-01T12:03:35.255Z,997.54
2022-09-01T12:04:35.140Z,997.57
2022-09-01T12:05:35.137Z,997.21
2022-09-01T12:06:35.126Z,997.21
2022-09-01T12:07:35.132Z,997.24
2022-09-01T12:08:36.107Z,997.17
2022-09-01T12:09:35.100Z,997.12
2022-09-01T12:10:35.091Z,997.19
2022-09-01T12:11:35.084Z,997.23
2022-09-01T12:12:35.105Z,997.20
2022-09-01T12:13:35.072Z,997.22
2022-09-01T12:14:54.967Z,997.12
2022-09-01T12:15:37.058Z,997.20
2022-09-01T12:16:35.098Z,997.12
2022-09-01T12:17:35.071Z,997.28
2022-09-01T12:18:35.035Z,997.11
2022-09-01T12:19:35.027Z,997.09
2022-09-01T12:20:35.034Z,997.19
2022-09-01T12:21:35.008Z,997.08
2022-09-01T12:22:35.027Z,997.00
2022-09-01T12:23:34.998Z,997.19
2022-09-01T12:24:34.984Z,997.13
2022-09-01T12:25:34.984Z,997.11
2022-09-01T12:26:34.960Z,997.06
2022-09-01T12:27:35.999Z,997.05
2022-09-01T12:28:34.955Z,996.99
2022-09-01T12:29:34.951Z,997.09
2022-09-01T12:30:34.945Z,997.08
2022-09-01T12:31:35.025Z,996.92
2022-09-01T12:32:34.962Z,996.97
2022-09-01T12:33:35.007Z,997.02
2022-09-01T12:34:35.917Z,997.03
2022-09-01T12:35:34.904Z,997.03
2022-09-01T12:36:34.968Z,997.04
2022-09-01T12:37:34.900Z,996.96
2022-09-01T12:38:34.908Z,997.02
2022-09-01T12:39:34.874Z,996.96
2022-09-01T12:40:34.877Z,996.92
2022-09-01T12:41:34.893Z,997.02
2022-09-01T12:42:38.969Z,996.99
2022-09-01T12:43:36.876Z,996.98